sensor_id;sensor_type;location;lat;lon;timestamp;P1;durP1;ratioP1;P2;durP2;ratioP2
36189;SDS011;22232;50.914;13.858;2023-03-01T00:01:32;41.25;;;19.63;;
36189;SDS011;22232;50.914;13.858;2023-03-01T00:04:00;38.40;;;19.58;;
36189;SDS011;22232;50.914;13.858;2023-03-01T00:06:27;38.90;;;19.95;;
36189;SDS011;22232;50.914;13.858;2023-03-01T00:08:55;36.70;;;19.10;;
36189;SDS011;22232;50.914;13.858;2023-03-01T00:11:24;42.10;;;19.50;;
36189;SDS011;22232;50.914;13.858;2023-03-01T00:13:55;42.72;;;19.50;;
36189;SDS011;22232;50.914;13.858;2023-03-01T00:16:25;42.88;;;20.70;;
36189;SDS011;22232;50.914;13.858;2023-03-01T00:18:57;46.70;;;20.95;;
36189;SDS011;22232;50.914;13.858;2023-03-01T00:21:25;47.08;;;21.52;;
36189;SDS011;22232;50.914;13.858;2023-03-01T00:23:54;46.70;;;19.38;;
36189;SDS011;22232;50.914;13.858;2023-03-01T00:26:22;39.63;;;18.70;;
36189;SDS011;22232;50.914;13.858;2023-03-01T00:28:51;43.88;;;20.42;;
36189;SDS011;22232;50.914;13.858;2023-03-01T00:31:19;43.25;;;19.90;;
36189;SDS011;22232;50.914;13.858;2023-03-01T00:33:52;38.28;;;19.70;;
36189;SDS011;22232;50.914;13.858;2023-03-01T00:36:25;44.10;;;20.33;;
36189;SDS011;22232;50.914;13.858;2023-03-01T00:38:55;40.40;;;20.08;;
36189;SDS011;22232;50.914;13.858;2023-03-01T00:41:23;39.42;;;18.88;;
36189;SDS011;22232;50.914;13.858;2023-03-01T00:43:54;44.38;;;20.20;;
36189;SDS011;22232;50.914;13.858;2023-03-01T00:46:23;39.85;;;19.42;;
36189;SDS011;22232;50.914;13.858;2023-03-01T00:48:53;35.70;;;17.92;;
36189;SDS011;22232;50.914;13.858;2023-03-01T00:51:25;36.85;;;17.17;;
36189;SDS011;22232;50.914;13.858;2023-03-01T00:56:24;40.70;;;19.05;;
36189;SDS011;22232;50.914;13.858;2023-03-01T00:58:52;40.20;;;19.40;;
36189;SDS011;22232;50.914;13.858;2023-03-01T01:01:21;39.53;;;18.35;;
36189;SDS011;22232;50.914;13.858;2023-03-01T01:03:55;36.17;;;17.55;;
36189;SDS011;22232;50.914;13.858;2023-03-01T01:06:32;38.78;;;18.52;;
36189;SDS011;22232;50.914;13.858;2023-03-01T01:09:02;38.65;;;18.88;;
36189;SDS011;22232;50.914;13.858;2023-03-01T01:11:34;37.33;;;18.65;;
36189;SDS011;22232;50.914;13.858;2023-03-01T01:14:04;41.13;;;19.30;;
36189;SDS011;22232;50.914;13.858;2023-03-01T01:16:32;36.97;;;18.02;;
36189;SDS011;22232;50.914;13.858;2023-03-01T01:19:01;33.97;;;17.77;;
36189;SDS011;22232;50.914;13.858;2023-03-01T01:21:29;40.05;;;18.27;;
36189;SDS011;22232;50.914;13.858;2023-03-01T01:23:57;37.67;;;18.20;;
36189;SDS011;22232;50.914;13.858;2023-03-01T01:26:26;35.78;;;18.08;;
36189;SDS011;22232;50.914;13.858;2023-03-01T01:28:56;40.47;;;18.50;;
36189;SDS011;22232;50.914;13.858;2023-03-01T01:31:24;36.08;;;18.67;;
36189;SDS011;22232;50.914;13.858;2023-03-01T01:33:52;40.40;;;19.58;;
36189;SDS011;22232;50.914;13.858;2023-03-01T01:36:20;36.97;;;18.38;;
36189;SDS011;22232;50.914;13.858;2023-03-01T01:38:48;40.72;;;19.00;;
36189;SDS011;22232;50.914;13.858;2023-03-01T01:41:16;35.60;;;17.67;;
36189;SDS011;22232;50.914;13.858;2023-03-01T01:43:45;41.10;;;18.35;;
36189;SDS011;22232;50.914;13.858;2023-03-01T01:46:33;39.45;;;19.85;;
36189;SDS011;22232;50.914;13.858;2023-03-01T01:51:57;36.80;;;19.85;;
36189;SDS011;22232;50.914;13.858;2023-03-01T01:54:56;38.90;;;19.80;;
36189;SDS011;22232;50.914;13.858;2023-03-01T01:57:29;38.20;;;19.38;;
36189;SDS011;22232;50.914;13.858;2023-03-01T02:00:06;40.60;;;19.95;;
36189;SDS011;22232;50.914;13.858;2023-03-01T02:02:39;44.72;;;21.33;;
36189;SDS011;22232;50.914;13.858;2023-03-01T02:05:24;41.88;;;21.02;;
36189;SDS011;22232;50.914;13.858;2023-03-01T02:08:00;44.67;;;21.05;;
36189;SDS011;22232;50.914;13.858;2023-03-01T02:10:28;43.00;;;21.42;;
36189;SDS011;22232;50.914;13.858;2023-03-01T02:13:00;43.67;;;21.40;;
36189;SDS011;22232;50.914;13.858;2023-03-01T02:15:33;41.63;;;19.73;;
36189;SDS011;22232;50.914;13.858;2023-03-01T02:18:03;43.90;;;21.35;;
36189;SDS011;22232;50.914;13.858;2023-03-01T02:23:16;38.88;;;19.70;;
36189;SDS011;22232;50.914;13.858;2023-03-01T02:28:49;40.60;;;20.52;;
36189;SDS011;22232;50.914;13.858;2023-03-01T02:31:18;38.05;;;18.88;;
36189;SDS011;22232;50.914;13.858;2023-03-01T02:34:07;40.75;;;19.77;;
36189;SDS011;22232;50.914;13.858;2023-03-01T02:36:44;39.30;;;19.75;;
36189;SDS011;22232;50.914;13.858;2023-03-01T02:39:16;40.58;;;19.65;;
36189;SDS011;22232;50.914;13.858;2023-03-01T02:41:52;41.25;;;19.42;;
36189;SDS011;22232;50.914;13.858;2023-03-01T02:44:21;46.10;;;20.75;;
36189;SDS011;22232;50.914;13.858;2023-03-01T02:46:53;39.40;;;19.33;;
36189;SDS011;22232;50.914;13.858;2023-03-01T02:49:24;40.47;;;21.35;;
36189;SDS011;22232;50.914;13.858;2023-03-01T02:54:47;41.35;;;20.27;;
36189;SDS011;22232;50.914;13.858;2023-03-01T02:57:28;42.88;;;20.42;;
36189;SDS011;22232;50.914;13.858;2023-03-01T02:59:59;48.53;;;22.48;;
36189;SDS011;22232;50.914;13.858;2023-03-01T03:02:35;42.70;;;20.90;;
36189;SDS011;22232;50.914;13.858;2023-03-01T03:05:16;48.72;;;21.13;;
36189;SDS011;22232;50.914;13.858;2023-03-01T03:07:47;44.28;;;21.60;;
36189;SDS011;22232;50.914;13.858;2023-03-01T03:10:20;42.80;;;20.38;;
36189;SDS011;22232;50.914;13.858;2023-03-01T03:12:50;42.88;;;21.17;;
36189;SDS011;22232;50.914;13.858;2023-03-01T03:15:19;43.88;;;20.95;;
36189;SDS011;22232;50.914;13.858;2023-03-01T03:17:47;48.35;;;21.30;;
36189;SDS011;22232;50.914;13.858;2023-03-01T03:20:17;43.05;;;20.88;;
36189;SDS011;22232;50.914;13.858;2023-03-01T03:22:47;46.67;;;21.10;;
36189;SDS011;22232;50.914;13.858;2023-03-01T03:25:18;46.60;;;22.77;;
36189;SDS011;22232;50.914;13.858;2023-03-01T03:27:47;50.20;;;21.90;;
36189;SDS011;22232;50.914;13.858;2023-03-01T03:30:16;46.38;;;21.75;;
36189;SDS011;22232;50.914;13.858;2023-03-01T03:32:46;54.80;;;26.25;;
36189;SDS011;22232;50.914;13.858;2023-03-01T03:35:21;54.42;;;24.50;;
36189;SDS011;22232;50.914;13.858;2023-03-01T03:37:51;53.15;;;25.58;;
36189;SDS011;22232;50.914;13.858;2023-03-01T03:42:58;51.70;;;23.42;;
36189;SDS011;22232;50.914;13.858;2023-03-01T03:45:25;53.72;;;25.00;;
36189;SDS011;22232;50.914;13.858;2023-03-01T03:47:53;55.15;;;25.05;;
36189;SDS011;22232;50.914;13.858;2023-03-01T03:50:21;54.67;;;24.58;;
36189;SDS011;22232;50.914;13.858;2023-03-01T03:52:48;53.35;;;25.00;;
36189;SDS011;22232;50.914;13.858;2023-03-01T03:55:16;57.40;;;24.70;;
36189;SDS011;22232;50.914;13.858;2023-03-01T03:57:47;49.20;;;24.20;;
36189;SDS011;22232;50.914;13.858;2023-03-01T04:00:19;49.97;;;23.02;;
36189;SDS011;22232;50.914;13.858;2023-03-01T04:02:50;66.22;;;26.95;;
36189;SDS011;22232;50.914;13.858;2023-03-01T04:05:18;52.92;;;24.95;;
36189;SDS011;22232;50.914;13.858;2023-03-01T04:07:46;53.20;;;24.67;;
36189;SDS011;22232;50.914;13.858;2023-03-01T04:10:14;54.65;;;24.27;;
36189;SDS011;22232;50.914;13.858;2023-03-01T04:12:43;54.85;;;24.80;;
36189;SDS011;22232;50.914;13.858;2023-03-01T04:15:11;55.35;;;24.48;;
36189;SDS011;22232;50.914;13.858;2023-03-01T04:17:43;53.60;;;25.02;;
36189;SDS011;22232;50.914;13.858;2023-03-01T04:20:12;57.95;;;26.70;;
36189;SDS011;22232;50.914;13.858;2023-03-01T04:22:44;51.07;;;24.97;;
36189;SDS011;22232;50.914;13.858;2023-03-01T04:25:15;57.47;;;24.05;;
36189;SDS011;22232;50.914;13.858;2023-03-01T04:27:42;54.47;;;25.30;;
36189;SDS011;22232;50.914;13.858;2023-03-01T04:30:10;58.55;;;24.27;;
36189;SDS011;22232;50.914;13.858;2023-03-01T04:32:38;58.63;;;25.50;;
36189;SDS011;22232;50.914;13.858;2023-03-01T04:35:05;52.72;;;23.70;;
36189;SDS011;22232;50.914;13.858;2023-03-01T04:37:33;57.00;;;25.90;;
36189;SDS011;22232;50.914;13.858;2023-03-01T04:40:02;58.90;;;24.13;;
36189;SDS011;22232;50.914;13.858;2023-03-01T04:42:39;54.25;;;26.63;;
36189;SDS011;22232;50.914;13.858;2023-03-01T04:45:07;68.78;;;30.80;;
36189;SDS011;22232;50.914;13.858;2023-03-01T04:47:40;53.15;;;24.35;;
36189;SDS011;22232;50.914;13.858;2023-03-01T04:50:10;52.33;;;23.92;;
36189;SDS011;22232;50.914;13.858;2023-03-01T04:52:39;55.35;;;24.02;;
36189;SDS011;22232;50.914;13.858;2023-03-01T04:55:07;49.22;;;24.20;;
36189;SDS011;22232;50.914;13.858;2023-03-01T04:57:35;51.28;;;24.13;;
36189;SDS011;22232;50.914;13.858;2023-03-01T05:00:03;57.65;;;26.10;;
36189;SDS011;22232;50.914;13.858;2023-03-01T05:02:52;58.78;;;26.20;;
36189;SDS011;22232;50.914;13.858;2023-03-01T05:05:25;54.20;;;25.40;;
36189;SDS011;22232;50.914;13.858;2023-03-01T05:07:56;54.53;;;25.40;;
36189;SDS011;22232;50.914;13.858;2023-03-01T05:10:25;59.53;;;27.35;;
36189;SDS011;22232;50.914;13.858;2023-03-01T05:12:56;56.88;;;25.92;;
36189;SDS011;22232;50.914;13.858;2023-03-01T05:15:25;57.22;;;27.10;;
36189;SDS011;22232;50.914;13.858;2023-03-01T05:17:55;54.55;;;26.40;;
36189;SDS011;22232;50.914;13.858;2023-03-01T05:20:26;62.17;;;26.52;;
36189;SDS011;22232;50.914;13.858;2023-03-01T05:22:57;53.78;;;25.30;;
36189;SDS011;22232;50.914;13.858;2023-03-01T05:25:26;53.80;;;23.90;;
36189;SDS011;22232;50.914;13.858;2023-03-01T05:27:54;68.03;;;30.80;;
36189;SDS011;22232;50.914;13.858;2023-03-01T05:30:21;81.40;;;34.33;;
36189;SDS011;22232;50.914;13.858;2023-03-01T05:32:50;79.13;;;35.55;;
36189;SDS011;22232;50.914;13.858;2023-03-01T05:37:50;57.65;;;27.50;;
36189;SDS011;22232;50.914;13.858;2023-03-01T05:40:19;67.22;;;30.42;;
36189;SDS011;22232;50.914;13.858;2023-03-01T05:42:53;74.43;;;32.35;;
36189;SDS011;22232;50.914;13.858;2023-03-01T05:45:23;67.63;;;29.80;;
36189;SDS011;22232;50.914;13.858;2023-03-01T05:47:52;64.03;;;29.20;;
36189;SDS011;22232;50.914;13.858;2023-03-01T05:50:23;61.17;;;27.98;;
36189;SDS011;22232;50.914;13.858;2023-03-01T05:52:59;63.10;;;27.13;;
36189;SDS011;22232;50.914;13.858;2023-03-01T05:55:35;69.90;;;29.15;;
36189;SDS011;22232;50.914;13.858;2023-03-01T05:58:05;64.03;;;28.40;;
36189;SDS011;22232;50.914;13.858;2023-03-01T06:00:37;67.75;;;27.75;;
36189;SDS011;22232;50.914;13.858;2023-03-01T06:03:04;78.95;;;33.83;;
36189;SDS011;22232;50.914;13.858;2023-03-01T06:05:32;86.22;;;33.88;;
36189;SDS011;22232;50.914;13.858;2023-03-01T06:08:00;97.15;;;38.13;;
36189;SDS011;22232;50.914;13.858;2023-03-01T06:10:28;91.80;;;37.55;;
36189;SDS011;22232;50.914;13.858;2023-03-01T06:12:56;77.88;;;33.13;;
36189;SDS011;22232;50.914;13.858;2023-03-01T06:15:25;64.85;;;29.38;;
36189;SDS011;22232;50.914;13.858;2023-03-01T06:17:53;59.25;;;27.65;;
36189;SDS011;22232;50.914;13.858;2023-03-01T06:20:26;67.38;;;29.60;;
36189;SDS011;22232;50.914;13.858;2023-03-01T06:22:57;58.40;;;25.98;;
36189;SDS011;22232;50.914;13.858;2023-03-01T06:25:25;50.78;;;23.98;;
36189;SDS011;22232;50.914;13.858;2023-03-01T06:27:54;47.90;;;22.45;;
36189;SDS011;22232;50.914;13.858;2023-03-01T06:30:22;44.53;;;23.17;;
36189;SDS011;22232;50.914;13.858;2023-03-01T06:32:50;42.88;;;21.73;;
36189;SDS011;22232;50.914;13.858;2023-03-01T06:35:19;45.58;;;21.95;;
36189;SDS011;22232;50.914;13.858;2023-03-01T06:37:47;48.45;;;22.02;;
36189;SDS011;22232;50.914;13.858;2023-03-01T06:40:15;44.03;;;21.50;;
36189;SDS011;22232;50.914;13.858;2023-03-01T06:42:43;44.22;;;21.40;;
36189;SDS011;22232;50.914;13.858;2023-03-01T06:45:19;46.22;;;22.63;;
36189;SDS011;22232;50.914;13.858;2023-03-01T06:47:48;45.78;;;21.90;;
36189;SDS011;22232;50.914;13.858;2023-03-01T06:50:16;46.45;;;21.30;;
36189;SDS011;22232;50.914;13.858;2023-03-01T06:52:44;42.05;;;21.02;;
36189;SDS011;22232;50.914;13.858;2023-03-01T06:55:12;42.35;;;20.73;;
36189;SDS011;22232;50.914;13.858;2023-03-01T06:57:40;44.38;;;21.05;;
36189;SDS011;22232;50.914;13.858;2023-03-01T07:00:08;42.45;;;20.88;;
36189;SDS011;22232;50.914;13.858;2023-03-01T07:02:36;41.28;;;20.17;;
36189;SDS011;22232;50.914;13.858;2023-03-01T07:05:03;36.88;;;18.60;;
36189;SDS011;22232;50.914;13.858;2023-03-01T07:07:31;42.15;;;20.92;;
36189;SDS011;22232;50.914;13.858;2023-03-01T07:09:59;36.45;;;20.05;;
36189;SDS011;22232;50.914;13.858;2023-03-01T07:12:26;36.90;;;19.65;;
36189;SDS011;22232;50.914;13.858;2023-03-01T07:14:54;39.35;;;19.73;;
36189;SDS011;22232;50.914;13.858;2023-03-01T07:17:21;44.13;;;22.95;;
36189;SDS011;22232;50.914;13.858;2023-03-01T07:19:49;39.25;;;20.77;;
36189;SDS011;22232;50.914;13.858;2023-03-01T07:22:16;38.28;;;20.17;;
36189;SDS011;22232;50.914;13.858;2023-03-01T07:24:44;40.17;;;20.25;;
36189;SDS011;22232;50.914;13.858;2023-03-01T07:27:11;41.85;;;20.80;;
36189;SDS011;22232;50.914;13.858;2023-03-01T07:29:39;34.13;;;17.75;;
36189;SDS011;22232;50.914;13.858;2023-03-01T07:32:06;36.60;;;19.80;;
36189;SDS011;22232;50.914;13.858;2023-03-01T07:34:34;37.85;;;19.45;;
36189;SDS011;22232;50.914;13.858;2023-03-01T07:37:02;37.40;;;19.42;;
36189;SDS011;22232;50.914;13.858;2023-03-01T07:39:29;37.92;;;19.85;;
36189;SDS011;22232;50.914;13.858;2023-03-01T07:41:57;40.42;;;20.27;;
36189;SDS011;22232;50.914;13.858;2023-03-01T07:44:25;42.45;;;20.75;;
36189;SDS011;22232;50.914;13.858;2023-03-01T07:46:53;39.30;;;19.92;;
36189;SDS011;22232;50.914;13.858;2023-03-01T07:49:23;41.10;;;21.13;;
36189;SDS011;22232;50.914;13.858;2023-03-01T07:51:50;39.20;;;20.17;;
36189;SDS011;22232;50.914;13.858;2023-03-01T07:54:18;37.03;;;18.63;;
36189;SDS011;22232;50.914;13.858;2023-03-01T07:56:45;41.33;;;20.38;;
36189;SDS011;22232;50.914;13.858;2023-03-01T07:59:13;41.20;;;21.05;;
36189;SDS011;22232;50.914;13.858;2023-03-01T08:01:41;41.97;;;20.52;;
36189;SDS011;22232;50.914;13.858;2023-03-01T08:04:08;42.33;;;21.38;;
36189;SDS011;22232;50.914;13.858;2023-03-01T08:06:36;43.28;;;20.27;;
36189;SDS011;22232;50.914;13.858;2023-03-01T08:09:04;40.83;;;21.05;;
36189;SDS011;22232;50.914;13.858;2023-03-01T08:11:31;39.22;;;20.63;;
36189;SDS011;22232;50.914;13.858;2023-03-01T08:13:59;44.85;;;21.35;;
36189;SDS011;22232;50.914;13.858;2023-03-01T08:16:27;42.47;;;20.45;;
36189;SDS011;22232;50.914;13.858;2023-03-01T08:18:55;39.60;;;20.60;;
36189;SDS011;22232;50.914;13.858;2023-03-01T08:21:23;44.75;;;22.33;;
36189;SDS011;22232;50.914;13.858;2023-03-01T08:23:51;41.40;;;20.98;;
36189;SDS011;22232;50.914;13.858;2023-03-01T08:26:19;41.72;;;22.17;;
36189;SDS011;22232;50.914;13.858;2023-03-01T08:28:48;45.60;;;23.20;;
36189;SDS011;22232;50.914;13.858;2023-03-01T08:31:24;42.67;;;21.80;;
36189;SDS011;22232;50.914;13.858;2023-03-01T08:33:55;46.28;;;22.42;;
36189;SDS011;22232;50.914;13.858;2023-03-01T08:36:28;43.35;;;21.67;;
36189;SDS011;22232;50.914;13.858;2023-03-01T08:38:59;46.03;;;22.23;;
36189;SDS011;22232;50.914;13.858;2023-03-01T08:41:26;41.22;;;22.00;;
36189;SDS011;22232;50.914;13.858;2023-03-01T08:43:54;45.90;;;22.13;;
36189;SDS011;22232;50.914;13.858;2023-03-01T08:46:30;44.78;;;22.05;;
36189;SDS011;22232;50.914;13.858;2023-03-01T08:48:59;43.50;;;22.38;;
36189;SDS011;22232;50.914;13.858;2023-03-01T08:51:27;47.70;;;24.17;;
36189;SDS011;22232;50.914;13.858;2023-03-01T08:53:56;42.63;;;23.13;;
36189;SDS011;22232;50.914;13.858;2023-03-01T08:56:23;44.83;;;23.88;;
36189;SDS011;22232;50.914;13.858;2023-03-01T08:58:51;54.47;;;26.63;;
36189;SDS011;22232;50.914;13.858;2023-03-01T09:01:18;49.17;;;24.77;;
36189;SDS011;22232;50.914;13.858;2023-03-01T09:03:46;52.88;;;24.60;;
36189;SDS011;22232;50.914;13.858;2023-03-01T09:06:15;47.10;;;23.45;;
36189;SDS011;22232;50.914;13.858;2023-03-01T09:08:44;53.95;;;25.48;;
36189;SDS011;22232;50.914;13.858;2023-03-01T09:11:15;50.75;;;24.63;;
36189;SDS011;22232;50.914;13.858;2023-03-01T09:13:45;51.63;;;25.17;;
36189;SDS011;22232;50.914;13.858;2023-03-01T09:16:14;54.90;;;25.95;;
36189;SDS011;22232;50.914;13.858;2023-03-01T09:18:44;54.80;;;26.25;;
36189;SDS011;22232;50.914;13.858;2023-03-01T09:21:16;51.92;;;25.40;;
36189;SDS011;22232;50.914;13.858;2023-03-01T09:23:56;53.22;;;25.52;;
36189;SDS011;22232;50.914;13.858;2023-03-01T09:26:25;53.50;;;26.48;;
36189;SDS011;22232;50.914;13.858;2023-03-01T09:28:54;56.67;;;26.33;;
36189;SDS011;22232;50.914;13.858;2023-03-01T09:31:23;51.30;;;25.20;;
36189;SDS011;22232;50.914;13.858;2023-03-01T09:33:52;56.13;;;26.63;;
36189;SDS011;22232;50.914;13.858;2023-03-01T09:36:22;56.25;;;25.17;;
36189;SDS011;22232;50.914;13.858;2023-03-01T09:38:50;53.85;;;25.05;;
36189;SDS011;22232;50.914;13.858;2023-03-01T09:44:23;59.03;;;26.40;;
36189;SDS011;22232;50.914;13.858;2023-03-01T09:46:55;48.80;;;24.35;;
36189;SDS011;22232;50.914;13.858;2023-03-01T09:49:27;50.90;;;24.98;;
36189;SDS011;22232;50.914;13.858;2023-03-01T09:52:03;55.22;;;25.52;;
36189;SDS011;22232;50.914;13.858;2023-03-01T09:54:34;51.30;;;24.88;;
36189;SDS011;22232;50.914;13.858;2023-03-01T09:57:17;46.85;;;24.02;;
36189;SDS011;22232;50.914;13.858;2023-03-01T10:08:34;49.80;;;24.88;;
36189;SDS011;22232;50.914;13.858;2023-03-01T10:11:25;52.67;;;24.02;;
36189;SDS011;22232;50.914;13.858;2023-03-01T10:14:05;46.90;;;23.73;;
36189;SDS011;22232;50.914;13.858;2023-03-01T10:19:17;51.58;;;24.73;;
36189;SDS011;22232;50.914;13.858;2023-03-01T10:21:51;47.03;;;22.42;;
36189;SDS011;22232;50.914;13.858;2023-03-01T10:24:20;51.53;;;24.67;;
36189;SDS011;22232;50.914;13.858;2023-03-01T10:29:30;56.20;;;25.73;;
36189;SDS011;22232;50.914;13.858;2023-03-01T10:32:04;50.55;;;25.13;;
36189;SDS011;22232;50.914;13.858;2023-03-01T10:34:35;51.20;;;24.63;;
36189;SDS011;22232;50.914;13.858;2023-03-01T10:39:55;52.15;;;25.13;;
36189;SDS011;22232;50.914;13.858;2023-03-01T10:42:30;45.97;;;22.17;;
36189;SDS011;22232;50.914;13.858;2023-03-01T10:47:46;44.53;;;23.55;;
36189;SDS011;22232;50.914;13.858;2023-03-01T10:50:20;49.25;;;23.30;;
36189;SDS011;22232;50.914;13.858;2023-03-01T10:52:57;51.95;;;25.27;;
36189;SDS011;22232;50.914;13.858;2023-03-01T10:55:36;50.83;;;23.92;;
36189;SDS011;22232;50.914;13.858;2023-03-01T10:58:07;52.70;;;24.08;;
36189;SDS011;22232;50.914;13.858;2023-03-01T11:00:47;53.15;;;24.83;;
36189;SDS011;22232;50.914;13.858;2023-03-01T11:03:26;45.50;;;22.23;;
36189;SDS011;22232;50.914;13.858;2023-03-01T11:06:04;53.42;;;25.00;;
36189;SDS011;22232;50.914;13.858;2023-03-01T11:08:42;49.85;;;24.02;;
36189;SDS011;22232;50.914;13.858;2023-03-01T11:13:53;44.92;;;22.60;;
36189;SDS011;22232;50.914;13.858;2023-03-01T11:16:24;48.83;;;22.67;;
36189;SDS011;22232;50.914;13.858;2023-03-01T11:18:58;46.45;;;22.98;;
36189;SDS011;22232;50.914;13.858;2023-03-01T11:21:28;45.42;;;22.38;;
36189;SDS011;22232;50.914;13.858;2023-03-01T11:24:00;42.72;;;22.15;;
36189;SDS011;22232;50.914;13.858;2023-03-01T11:26:28;43.13;;;23.05;;
36189;SDS011;22232;50.914;13.858;2023-03-01T11:29:03;47.35;;;22.95;;
36189;SDS011;22232;50.914;13.858;2023-03-01T11:31:38;45.33;;;22.90;;
36189;SDS011;22232;50.914;13.858;2023-03-01T11:35:08;48.67;;;23.35;;
36189;SDS011;22232;50.914;13.858;2023-03-01T11:38:07;45.70;;;23.40;;
36189;SDS011;22232;50.914;13.858;2023-03-01T11:40:12;53.78;;;25.23;;
36189;SDS011;22232;50.914;13.858;2023-03-01T11:42:55;46.20;;;23.15;;
36189;SDS011;22232;50.914;13.858;2023-03-01T11:51:37;46.05;;;22.23;;
36189;SDS011;22232;50.914;13.858;2023-03-01T11:56:50;49.38;;;23.50;;
36189;SDS011;22232;50.914;13.858;2023-03-01T12:22:20;31.80;;;15.90;;
36189;SDS011;22232;50.914;13.858;2023-03-01T12:33:41;29.70;;;16.17;;
36189;SDS011;22232;50.914;13.858;2023-03-01T12:38:50;31.85;;;16.08;;
36189;SDS011;22232;50.914;13.858;2023-03-01T12:47:26;37.67;;;17.90;;
36189;SDS011;22232;50.914;13.858;2023-03-01T12:50:17;37.60;;;17.73;;
36189;SDS011;22232;50.914;13.858;2023-03-01T12:52:57;32.78;;;15.70;;
36189;SDS011;22232;50.914;13.858;2023-03-01T13:01:16;37.17;;;19.13;;
36189;SDS011;22232;50.914;13.858;2023-03-01T13:06:44;37.28;;;19.02;;
36189;SDS011;22232;50.914;13.858;2023-03-01T13:18:34;39.53;;;20.90;;
36189;SDS011;22232;50.914;13.858;2023-03-01T13:20:47;42.30;;;20.60;;
36189;SDS011;22232;50.914;13.858;2023-03-01T13:29:11;36.08;;;17.95;;
36189;SDS011;22232;50.914;13.858;2023-03-01T13:33:46;37.00;;;17.92;;
36189;SDS011;22232;50.914;13.858;2023-03-01T13:39:18;47.13;;;20.30;;
36189;SDS011;22232;50.914;13.858;2023-03-01T13:41:59;42.13;;;21.02;;
36189;SDS011;22232;50.914;13.858;2023-03-01T13:44:33;40.78;;;20.77;;
36189;SDS011;22232;50.914;13.858;2023-03-01T13:47:12;38.67;;;20.38;;
36189;SDS011;22232;50.914;13.858;2023-03-01T13:49:55;39.67;;;21.02;;
36189;SDS011;22232;50.914;13.858;2023-03-01T13:57:56;47.05;;;21.77;;
36189;SDS011;22232;50.914;13.858;2023-03-01T14:00:27;42.55;;;21.88;;
36189;SDS011;22232;50.914;13.858;2023-03-01T14:03:02;38.75;;;20.65;;
36189;SDS011;22232;50.914;13.858;2023-03-01T14:05:33;37.08;;;19.65;;
36189;SDS011;22232;50.914;13.858;2023-03-01T14:08:00;40.45;;;21.70;;
36189;SDS011;22232;50.914;13.858;2023-03-01T14:13:51;44.50;;;21.35;;
36189;SDS011;22232;50.914;13.858;2023-03-01T14:19:43;37.28;;;19.73;;
36189;SDS011;22232;50.914;13.858;2023-03-01T14:24:50;37.10;;;18.90;;
36189;SDS011;22232;50.914;13.858;2023-03-01T14:27:38;39.88;;;19.38;;
36189;SDS011;22232;50.914;13.858;2023-03-01T14:30:25;40.92;;;18.80;;
36189;SDS011;22232;50.914;13.858;2023-03-01T14:32:59;37.20;;;19.13;;
36189;SDS011;22232;50.914;13.858;2023-03-01T14:35:32;40.35;;;19.08;;
36189;SDS011;22232;50.914;13.858;2023-03-01T14:40:31;34.45;;;17.23;;
36189;SDS011;22232;50.914;13.858;2023-03-01T14:43:03;37.25;;;18.50;;
36189;SDS011;22232;50.914;13.858;2023-03-01T14:45:37;34.65;;;17.08;;
36189;SDS011;22232;50.914;13.858;2023-03-01T14:48:05;33.42;;;15.35;;
36189;SDS011;22232;50.914;13.858;2023-03-01T14:50:34;36.80;;;17.45;;
36189;SDS011;22232;50.914;13.858;2023-03-01T14:53:07;31.92;;;16.42;;
36189;SDS011;22232;50.914;13.858;2023-03-01T14:55:45;36.80;;;18.30;;
36189;SDS011;22232;50.914;13.858;2023-03-01T14:58:19;38.30;;;19.52;;
36189;SDS011;22232;50.914;13.858;2023-03-01T15:00:53;39.72;;;18.98;;
36189;SDS011;22232;50.914;13.858;2023-03-01T15:03:25;39.72;;;18.92;;
36189;SDS011;22232;50.914;13.858;2023-03-01T15:06:00;42.90;;;19.92;;
36189;SDS011;22232;50.914;13.858;2023-03-01T15:08:29;39.22;;;19.95;;
36189;SDS011;22232;50.914;13.858;2023-03-01T15:11:15;42.22;;;19.05;;
36189;SDS011;22232;50.914;13.858;2023-03-01T15:13:44;39.67;;;19.00;;
36189;SDS011;22232;50.914;13.858;2023-03-01T15:16:16;41.22;;;19.52;;
36189;SDS011;22232;50.914;13.858;2023-03-01T15:18:57;42.40;;;19.25;;
36189;SDS011;22232;50.914;13.858;2023-03-01T15:21:30;38.72;;;18.63;;
36189;SDS011;22232;50.914;13.858;2023-03-01T15:26:51;41.25;;;19.00;;
36189;SDS011;22232;50.914;13.858;2023-03-01T15:29:29;38.80;;;18.30;;
36189;SDS011;22232;50.914;13.858;2023-03-01T15:32:01;39.78;;;19.02;;
36189;SDS011;22232;50.914;13.858;2023-03-01T15:34:37;39.42;;;17.80;;
36189;SDS011;22232;50.914;13.858;2023-03-01T15:37:06;39.10;;;19.35;;
36189;SDS011;22232;50.914;13.858;2023-03-01T15:42:51;43.55;;;19.65;;
36189;SDS011;22232;50.914;13.858;2023-03-01T15:45:24;37.55;;;17.80;;
36189;SDS011;22232;50.914;13.858;2023-03-01T15:47:57;40.33;;;19.48;;
36189;SDS011;22232;50.914;13.858;2023-03-01T15:50:31;37.65;;;19.30;;
36189;SDS011;22232;50.914;13.858;2023-03-01T15:53:01;41.95;;;19.95;;
36189;SDS011;22232;50.914;13.858;2023-03-01T15:55:33;39.77;;;18.47;;
36189;SDS011;22232;50.914;13.858;2023-03-01T16:00:32;43.75;;;19.48;;
36189;SDS011;22232;50.914;13.858;2023-03-01T16:03:00;35.20;;;18.27;;
36189;SDS011;22232;50.914;13.858;2023-03-01T16:05:29;36.88;;;17.55;;
36189;SDS011;22232;50.914;13.858;2023-03-01T16:07:59;37.15;;;18.85;;
36189;SDS011;22232;50.914;13.858;2023-03-01T16:10:27;39.20;;;18.33;;
36189;SDS011;22232;50.914;13.858;2023-03-01T16:12:55;35.92;;;16.95;;
36189;SDS011;22232;50.914;13.858;2023-03-01T16:15:24;39.50;;;18.00;;
36189;SDS011;22232;50.914;13.858;2023-03-01T16:17:57;36.30;;;18.33;;
36189;SDS011;22232;50.914;13.858;2023-03-01T16:20:28;43.05;;;18.40;;
36189;SDS011;22232;50.914;13.858;2023-03-01T16:23:03;39.67;;;18.33;;
36189;SDS011;22232;50.914;13.858;2023-03-01T16:25:33;35.97;;;17.67;;
36189;SDS011;22232;50.914;13.858;2023-03-01T16:28:01;36.40;;;18.23;;
36189;SDS011;22232;50.914;13.858;2023-03-01T16:30:32;37.00;;;18.13;;
36189;SDS011;22232;50.914;13.858;2023-03-01T16:33:03;37.60;;;18.23;;
36189;SDS011;22232;50.914;13.858;2023-03-01T16:35:53;38.85;;;17.80;;
36189;SDS011;22232;50.914;13.858;2023-03-01T16:38:21;44.67;;;20.33;;
36189;SDS011;22232;50.914;13.858;2023-03-01T16:40:49;42.47;;;20.05;;
36189;SDS011;22232;50.914;13.858;2023-03-01T16:43:18;38.50;;;18.85;;
36189;SDS011;22232;50.914;13.858;2023-03-01T16:45:45;42.13;;;19.30;;
36189;SDS011;22232;50.914;13.858;2023-03-01T16:48:13;41.65;;;18.20;;
36189;SDS011;22232;50.914;13.858;2023-03-01T16:50:41;40.50;;;19.48;;
36189;SDS011;22232;50.914;13.858;2023-03-01T16:53:09;44.17;;;19.00;;
36189;SDS011;22232;50.914;13.858;2023-03-01T16:55:36;41.70;;;19.13;;
36189;SDS011;22232;50.914;13.858;2023-03-01T16:58:04;37.70;;;18.48;;
36189;SDS011;22232;50.914;13.858;2023-03-01T17:00:32;45.47;;;21.60;;